sensor_id;sensor_type;location;lat;lon;timestamp;temperature;humidity
39657;DHT22;25337;51.478;7.510;2023-12-29T00:01:32;9.90;99.90
39657;DHT22;25337;51.478;7.510;2023-12-29T00:03:57;9.90;99.90
39657;DHT22;25337;51.478;7.510;2023-12-29T00:06:23;9.90;99.90
39657;DHT22;25337;51.478;7.510;2023-12-29T00:08:48;9.80;99.90
39657;DHT22;25337;51.478;7.510;2023-12-29T00:11:21;10.00;99.90
39657;DHT22;25337;51.478;7.510;2023-12-29T00:13:47;9.90;99.90
39657;DHT22;25337;51.478;7.510;2023-12-29T00:16:13;9.90;99.90
39657;DHT22;25337;51.478;7.510;2023-12-29T00:18:39;9.90;99.90
39657;DHT22;25337;51.478;7.510;2023-12-29T00:21:05;9.90;99.90
39657;DHT22;25337;51.478;7.510;2023-12-29T00:23:31;9.90;99.90
39657;DHT22;25337;51.478;7.510;2023-12-29T00:25:56;9.90;99.90
39657;DHT22;25337;51.478;7.510;2023-12-29T00:28:22;10.00;99.90
39657;DHT22;25337;51.478;7.510;2023-12-29T00:30:48;10.00;99.90
39657;DHT22;25337;51.478;7.510;2023-12-29T00:33:13;10.00;99.90
39657;DHT22;25337;51.478;7.510;2023-12-29T00:35:39;10.00;99.90
39657;DHT22;25337;51.478;7.510;2023-12-29T00:38:05;10.00;99.90
39657;DHT22;25337;51.478;7.510;2023-12-29T00:40:32;10.00;99.90
39657;DHT22;25337;51.478;7.510;2023-12-29T00:42:59;10.00;99.90
39657;DHT22;25337;51.478;7.510;2023-12-29T00:45:25;10.00;99.90
39657;DHT22;25337;51.478;7.510;2023-12-29T00:47:50;10.00;99.90
39657;DHT22;25337;51.478;7.510;2023-12-29T00:50:17;10.10;99.90
39657;DHT22;25337;51.478;7.510;2023-12-29T00:52:42;10.10;99.90
39657;DHT22;25337;51.478;7.510;2023-12-29T00:55:08;10.10;99.90
39657;DHT22;25337;51.478;7.510;2023-12-29T00:57:34;10.10;99.90
39657;DHT22;25337;51.478;7.510;2023-12-29T01:00:00;10.20;99.90
39657;DHT22;25337;51.478;7.510;2023-12-29T01:02:26;10.10;99.90
39657;DHT22;25337;51.478;7.510;2023-12-29T01:04:52;10.10;99.90
39657;DHT22;25337;51.478;7.510;2023-12-29T01:07:17;10.10;99.90
39657;DHT22;25337;51.478;7.510;2023-12-29T01:09:43;10.10;99.90
39657;DHT22;25337;51.478;7.510;2023-12-29T01:12:09;10.10;99.90
39657;DHT22;25337;51.478;7.510;2023-12-29T01:14:35;10.10;99.90
39657;DHT22;25337;51.478;7.510;2023-12-29T01:17:01;10.10;99.90
39657;DHT22;25337;51.478;7.510;2023-12-29T01:19:26;10.10;99.90
39657;DHT22;25337;51.478;7.510;2023-12-29T01:21:52;10.00;99.90
39657;DHT22;25337;51.478;7.510;2023-12-29T01:24:17;10.10;99.90
39657;DHT22;25337;51.478;7.510;2023-12-29T01:26:43;10.10;99.90
39657;DHT22;25337;51.478;7.510;2023-12-29T01:29:09;10.10;99.90
39657;DHT22;25337;51.478;7.510;2023-12-29T01:31:34;10.10;99.90
39657;DHT22;25337;51.478;7.510;2023-12-29T01:34:00;10.10;99.90
39657;DHT22;25337;51.478;7.510;2023-12-29T01:36:26;10.10;99.90
39657;DHT22;25337;51.478;7.510;2023-12-29T01:38:52;10.00;99.90
39657;DHT22;25337;51.478;7.510;2023-12-29T01:41:20;10.10;99.90
39657;DHT22;25337;51.478;7.510;2023-12-29T01:46:29;10.10;99.90
39657;DHT22;25337;51.478;7.510;2023-12-29T01:48:57;10.10;99.90
39657;DHT22;25337;51.478;7.510;2023-12-29T01:51:25;10.10;99.90
39657;DHT22;25337;51.478;7.510;2023-12-29T01:53:52;10.10;99.90
39657;DHT22;25337;51.478;7.510;2023-12-29T01:56:19;10.10;99.90
39657;DHT22;25337;51.478;7.510;2023-12-29T01:58:46;10.10;99.90
39657;DHT22;25337;51.478;7.510;2023-12-29T02:01:14;10.10;99.90
39657;DHT22;25337;51.478;7.510;2023-12-29T02:03:41;10.10;99.90
39657;DHT22;25337;51.478;7.510;2023-12-29T02:06:10;10.00;99.90
39657;DHT22;25337;51.478;7.510;2023-12-29T02:08:37;10.00;99.90
39657;DHT22;25337;51.478;7.510;2023-12-29T02:11:03;9.80;99.90
39657;DHT22;25337;51.478;7.510;2023-12-29T02:13:29;9.80;99.90
39657;DHT22;25337;51.478;7.510;2023-12-29T02:16:00;9.70;99.90
39657;DHT22;25337;51.478;7.510;2023-12-29T02:18:30;9.70;99.90
39657;DHT22;25337;51.478;7.510;2023-12-29T02:20:57;9.50;99.90
39657;DHT22;25337;51.478;7.510;2023-12-29T02:23:23;9.40;99.90
39657;DHT22;25337;51.478;7.510;2023-12-29T02:25:49;9.50;99.90
39657;DHT22;25337;51.478;7.510;2023-12-29T02:28:22;9.40;99.90
39657;DHT22;25337;51.478;7.510;2023-12-29T02:33:24;9.30;99.90
39657;DHT22;25337;51.478;7.510;2023-12-29T02:35:52;9.10;99.90
39657;DHT22;25337;51.478;7.510;2023-12-29T02:38:19;9.00;99.90
39657;DHT22;25337;51.478;7.510;2023-12-29T02:40:46;9.00;99.90
39657;DHT22;25337;51.478;7.510;2023-12-29T02:43:11;8.80;99.90
39657;DHT22;25337;51.478;7.510;2023-12-29T02:45:37;8.70;99.90
39657;DHT22;25337;51.478;7.510;2023-12-29T02:48:03;8.70;99.90
39657;DHT22;25337;51.478;7.510;2023-12-29T02:50:28;8.60;99.90
39657;DHT22;25337;51.478;7.510;2023-12-29T02:52:54;8.60;99.90
39657;DHT22;25337;51.478;7.510;2023-12-29T02:55:20;8.50;99.90
39657;DHT22;25337;51.478;7.510;2023-12-29T02:57:45;8.50;99.90
39657;DHT22;25337;51.478;7.510;2023-12-29T03:00:11;8.50;99.90
39657;DHT22;25337;51.478;7.510;2023-12-29T03:02:37;8.50;99.90
39657;DHT22;25337;51.478;7.510;2023-12-29T03:05:03;8.40;99.90
39657;DHT22;25337;51.478;7.510;2023-12-29T03:07:29;8.40;99.90
39657;DHT22;25337;51.478;7.510;2023-12-29T03:09:54;8.30;99.90
39657;DHT22;25337;51.478;7.510;2023-12-29T03:12:20;8.30;99.90
39657;DHT22;25337;51.478;7.510;2023-12-29T03:14:46;8.30;99.90
39657;DHT22;25337;51.478;7.510;2023-12-29T03:17:14;8.30;99.90
39657;DHT22;25337;51.478;7.510;2023-12-29T03:19:40;8.20;99.90
39657;DHT22;25337;51.478;7.510;2023-12-29T03:22:05;8.30;99.90
39657;DHT22;25337;51.478;7.510;2023-12-29T03:24:31;8.30;99.90
39657;DHT22;25337;51.478;7.510;2023-12-29T03:26:57;8.30;99.90
39657;DHT22;25337;51.478;7.510;2023-12-29T03:29:22;8.30;99.90
39657;DHT22;25337;51.478;7.510;2023-12-29T03:31:48;8.30;99.90
39657;DHT22;25337;51.478;7.510;2023-12-29T03:34:14;8.30;99.90
39657;DHT22;25337;51.478;7.510;2023-12-29T03:36:39;8.40;99.90
39657;DHT22;25337;51.478;7.510;2023-12-29T03:39:05;8.40;99.90
39657;DHT22;25337;51.478;7.510;2023-12-29T03:41:31;8.40;99.90
39657;DHT22;25337;51.478;7.510;2023-12-29T03:43:57;8.50;99.90
39657;DHT22;25337;51.478;7.510;2023-12-29T03:46:23;8.60;99.90
39657;DHT22;25337;51.478;7.510;2023-12-29T03:48:49;8.60;99.90
39657;DHT22;25337;51.478;7.510;2023-12-29T03:51:15;8.70;99.90
39657;DHT22;25337;51.478;7.510;2023-12-29T03:53:41;8.80;99.90
39657;DHT22;25337;51.478;7.510;2023-12-29T03:56:08;8.70;99.90
39657;DHT22;25337;51.478;7.510;2023-12-29T03:58:37;8.80;99.90
39657;DHT22;25337;51.478;7.510;2023-12-29T04:01:03;8.80;99.90
39657;DHT22;25337;51.478;7.510;2023-12-29T04:03:29;8.90;99.90
39657;DHT22;25337;51.478;7.510;2023-12-29T04:05:54;8.90;99.90
39657;DHT22;25337;51.478;7.510;2023-12-29T04:08:20;9.00;99.90
39657;DHT22;25337;51.478;7.510;2023-12-29T04:10:46;9.10;99.90
39657;DHT22;25337;51.478;7.510;2023-12-29T04:13:11;9.10;99.90
39657;DHT22;25337;51.478;7.510;2023-12-29T04:15:37;9.20;99.90
39657;DHT22;25337;51.478;7.510;2023-12-29T04:18:03;9.20;99.90
39657;DHT22;25337;51.478;7.510;2023-12-29T04:20:28;9.20;99.90
39657;DHT22;25337;51.478;7.510;2023-12-29T04:22:54;9.30;99.90
39657;DHT22;25337;51.478;7.510;2023-12-29T04:25:20;9.30;99.90
39657;DHT22;25337;51.478;7.510;2023-12-29T04:27:46;9.30;99.90
39657;DHT22;25337;51.478;7.510;2023-12-29T04:30:12;9.30;99.90
39657;DHT22;25337;51.478;7.510;2023-12-29T04:32:37;9.30;99.90
39657;DHT22;25337;51.478;7.510;2023-12-29T04:35:03;9.40;99.90
39657;DHT22;25337;51.478;7.510;2023-12-29T04:37:29;9.30;99.90
39657;DHT22;25337;51.478;7.510;2023-12-29T04:39:54;9.30;99.90
39657;DHT22;25337;51.478;7.510;2023-12-29T04:42:20;9.30;99.90
39657;DHT22;25337;51.478;7.510;2023-12-29T04:44:46;9.40;99.90
39657;DHT22;25337;51.478;7.510;2023-12-29T04:47:11;9.40;99.90
39657;DHT22;25337;51.478;7.510;2023-12-29T04:49:37;9.40;99.90
39657;DHT22;25337;51.478;7.510;2023-12-29T04:52:03;9.50;99.90
39657;DHT22;25337;51.478;7.510;2023-12-29T04:54:28;9.40;99.90
39657;DHT22;25337;51.478;7.510;2023-12-29T04:56:54;9.40;99.90
39657;DHT22;25337;51.478;7.510;2023-12-29T04:59:19;9.40;99.90
39657;DHT22;25337;51.478;7.510;2023-12-29T05:01:45;9.40;99.90
39657;DHT22;25337;51.478;7.510;2023-12-29T05:04:11;9.40;99.90
39657;DHT22;25337;51.478;7.510;2023-12-29T05:06:36;9.40;99.90
39657;DHT22;25337;51.478;7.510;2023-12-29T05:09:02;9.40;99.90
39657;DHT22;25337;51.478;7.510;2023-12-29T05:11:28;9.30;99.90
39657;DHT22;25337;51.478;7.510;2023-12-29T05:13:53;9.30;99.90
39657;DHT22;25337;51.478;7.510;2023-12-29T05:16:19;9.30;99.90
39657;DHT22;25337;51.478;7.510;2023-12-29T05:18:45;9.30;99.90
39657;DHT22;25337;51.478;7.510;2023-12-29T05:21:18;9.20;99.90
39657;DHT22;25337;51.478;7.510;2023-12-29T05:23:44;9.20;99.90
39657;DHT22;25337;51.478;7.510;2023-12-29T05:26:11;9.10;99.90
39657;DHT22;25337;51.478;7.510;2023-12-29T05:28:36;9.10;99.90
39657;DHT22;25337;51.478;7.510;2023-12-29T05:31:02;9.10;99.90
39657;DHT22;25337;51.478;7.510;2023-12-29T05:33:31;9.10;99.90
39657;DHT22;25337;51.478;7.510;2023-12-29T05:35:58;9.20;99.90
39657;DHT22;25337;51.478;7.510;2023-12-29T05:38:23;9.20;99.90
39657;DHT22;25337;51.478;7.510;2023-12-29T05:40:50;9.30;99.90
39657;DHT22;25337;51.478;7.510;2023-12-29T05:43:16;9.30;99.90
39657;DHT22;25337;51.478;7.510;2023-12-29T05:45:42;9.30;99.90
39657;DHT22;25337;51.478;7.510;2023-12-29T05:48:08;9.40;99.90
39657;DHT22;25337;51.478;7.510;2023-12-29T05:50:33;9.50;99.90
39657;DHT22;25337;51.478;7.510;2023-12-29T05:52:59;9.40;99.90
39657;DHT22;25337;51.478;7.510;2023-12-29T05:55:25;9.40;99.90
39657;DHT22;25337;51.478;7.510;2023-12-29T05:57:50;9.50;99.90
39657;DHT22;25337;51.478;7.510;2023-12-29T06:00:16;9.50;99.90
39657;DHT22;25337;51.478;7.510;2023-12-29T06:02:42;9.50;99.90
39657;DHT22;25337;51.478;7.510;2023-12-29T06:05:10;9.50;99.90
39657;DHT22;25337;51.478;7.510;2023-12-29T06:07:36;9.50;99.90
39657;DHT22;25337;51.478;7.510;2023-12-29T06:10:02;9.50;99.90
39657;DHT22;25337;51.478;7.510;2023-12-29T06:12:28;9.50;99.90
39657;DHT22;25337;51.478;7.510;2023-12-29T06:14:54;9.60;99.90
39657;DHT22;25337;51.478;7.510;2023-12-29T06:17:19;9.60;99.90
39657;DHT22;25337;51.478;7.510;2023-12-29T06:19:45;9.60;99.90
39657;DHT22;25337;51.478;7.510;2023-12-29T06:22:11;9.60;99.90
39657;DHT22;25337;51.478;7.510;2023-12-29T06:24:42;9.60;99.90
39657;DHT22;25337;51.478;7.510;2023-12-29T06:27:09;9.60;99.90
39657;DHT22;25337;51.478;7.510;2023-12-29T06:29:35;9.60;99.90
39657;DHT22;25337;51.478;7.510;2023-12-29T06:32:01;9.60;99.90
39657;DHT22;25337;51.478;7.510;2023-12-29T06:34:26;9.60;99.90
39657;DHT22;25337;51.478;7.510;2023-12-29T06:36:52;9.60;99.90
39657;DHT22;25337;51.478;7.510;2023-12-29T06:39:18;9.60;99.90
39657;DHT22;25337;51.478;7.510;2023-12-29T06:41:43;9.60;99.90
39657;DHT22;25337;51.478;7.510;2023-12-29T06:44:09;9.60;99.90
39657;DHT22;25337;51.478;7.510;2023-12-29T06:46:39;9.60;99.90
39657;DHT22;25337;51.478;7.510;2023-12-29T06:49:07;9.60;99.90
39657;DHT22;25337;51.478;7.510;2023-12-29T06:51:33;9.60;99.90
39657;DHT22;25337;51.478;7.510;2023-12-29T06:53:59;9.60;99.90
39657;DHT22;25337;51.478;7.510;2023-12-29T06:56:25;9.60;99.90
39657;DHT22;25337;51.478;7.510;2023-12-29T06:58:51;9.60;99.90
39657;DHT22;25337;51.478;7.510;2023-12-29T07:01:17;9.60;99.90
39657;DHT22;25337;51.478;7.510;2023-12-29T07:03:43;9.60;99.90
39657;DHT22;25337;51.478;7.510;2023-12-29T07:06:10;9.60;99.90
39657;DHT22;25337;51.478;7.510;2023-12-29T07:08:36;9.60;99.90
39657;DHT22;25337;51.478;7.510;2023-12-29T07:11:01;9.60;99.90
39657;DHT22;25337;51.478;7.510;2023-12-29T07:13:27;9.60;99.90
39657;DHT22;25337;51.478;7.510;2023-12-29T07:15:53;9.60;99.90
39657;DHT22;25337;51.478;7.510;2023-12-29T07:18:19;9.60;99.90
39657;DHT22;25337;51.478;7.510;2023-12-29T07:20:44;9.60;99.90
39657;DHT22;25337;51.478;7.510;2023-12-29T07:23:10;9.60;99.90
39657;DHT22;25337;51.478;7.510;2023-12-29T07:25:36;9.60;99.90
39657;DHT22;25337;51.478;7.510;2023-12-29T07:28:01;9.60;99.90
39657;DHT22;25337;51.478;7.510;2023-12-29T07:30:27;9.60;99.90
39657;DHT22;25337;51.478;7.510;2023-12-29T07:32:52;9.50;99.90
39657;DHT22;25337;51.478;7.510;2023-12-29T07:35:18;9.40;99.90
39657;DHT22;25337;51.478;7.510;2023-12-29T07:37:46;9.30;99.90
39657;DHT22;25337;51.478;7.510;2023-12-29T07:40:13;9.10;99.90
39657;DHT22;25337;51.478;7.510;2023-12-29T07:42:42;9.00;99.90
39657;DHT22;25337;51.478;7.510;2023-12-29T07:45:09;8.80;99.90
39657;DHT22;25337;51.478;7.510;2023-12-29T07:47:35;8.70;99.90
39657;DHT22;25337;51.478;7.510;2023-12-29T07:50:01;8.60;99.90
39657;DHT22;25337;51.478;7.510;2023-12-29T07:52:27;8.50;99.90
39657;DHT22;25337;51.478;7.510;2023-12-29T07:54:52;8.50;99.90
39657;DHT22;25337;51.478;7.510;2023-12-29T07:57:18;8.40;99.90
39657;DHT22;25337;51.478;7.510;2023-12-29T07:59:44;8.40;99.90
39657;DHT22;25337;51.478;7.510;2023-12-29T08:02:10;8.30;99.90
39657;DHT22;25337;51.478;7.510;2023-12-29T08:04:35;8.30;99.90
39657;DHT22;25337;51.478;7.510;2023-12-29T08:07:01;8.30;99.90
39657;DHT22;25337;51.478;7.510;2023-12-29T08:09:27;8.30;99.90
39657;DHT22;25337;51.478;7.510;2023-12-29T08:11:52;8.20;99.90
39657;DHT22;25337;51.478;7.510;2023-12-29T08:14:18;8.30;99.90
39657;DHT22;25337;51.478;7.510;2023-12-29T08:16:44;8.20;99.90
39657;DHT22;25337;51.478;7.510;2023-12-29T08:19:09;8.20;99.90
39657;DHT22;25337;51.478;7.510;2023-12-29T08:21:36;8.30;99.90
39657;DHT22;25337;51.478;7.510;2023-12-29T08:24:02;8.30;99.90
39657;DHT22;25337;51.478;7.510;2023-12-29T08:26:28;8.30;99.90
39657;DHT22;25337;51.478;7.510;2023-12-29T08:28:54;8.30;99.90
39657;DHT22;25337;51.478;7.510;2023-12-29T08:31:20;8.30;99.90
39657;DHT22;25337;51.478;7.510;2023-12-29T08:33:46;8.30;99.90
39657;DHT22;25337;51.478;7.510;2023-12-29T08:36:12;8.30;99.90
39657;DHT22;25337;51.478;7.510;2023-12-29T08:38:38;8.30;99.90
39657;DHT22;25337;51.478;7.510;2023-12-29T08:41:04;8.30;99.90
39657;DHT22;25337;51.478;7.510;2023-12-29T08:43:30;8.30;99.90
39657;DHT22;25337;51.478;7.510;2023-12-29T08:45:56;8.30;99.90
39657;DHT22;25337;51.478;7.510;2023-12-29T08:48:22;8.30;99.90
39657;DHT22;25337;51.478;7.510;2023-12-29T08:50:48;8.40;99.90
39657;DHT22;25337;51.478;7.510;2023-12-29T08:53:14;8.30;99.90
39657;DHT22;25337;51.478;7.510;2023-12-29T08:55:41;8.30;99.90
39657;DHT22;25337;51.478;7.510;2023-12-29T08:58:07;8.40;99.90
39657;DHT22;25337;51.478;7.510;2023-12-29T09:00:32;8.40;99.90
39657;DHT22;25337;51.478;7.510;2023-12-29T09:02:58;8.50;99.90
39657;DHT22;25337;51.478;7.510;2023-12-29T09:05:24;8.40;99.90
39657;DHT22;25337;51.478;7.510;2023-12-29T09:07:49;8.40;99.90
39657;DHT22;25337;51.478;7.510;2023-12-29T09:10:15;8.50;99.90
39657;DHT22;25337;51.478;7.510;2023-12-29T09:12:41;8.50;99.90
39657;DHT22;25337;51.478;7.510;2023-12-29T09:15:07;8.50;99.90
39657;DHT22;25337;51.478;7.510;2023-12-29T09:17:34;8.60;99.90
39657;DHT22;25337;51.478;7.510;2023-12-29T09:20:00;8.60;99.90
39657;DHT22;25337;51.478;7.510;2023-12-29T09:22:25;8.60;99.90
39657;DHT22;25337;51.478;7.510;2023-12-29T09:24:51;8.60;99.90
39657;DHT22;25337;51.478;7.510;2023-12-29T09:27:17;8.60;99.90
39657;DHT22;25337;51.478;7.510;2023-12-29T09:29:43;8.60;99.90
39657;DHT22;25337;51.478;7.510;2023-12-29T09:32:08;8.60;99.90
39657;DHT22;25337;51.478;7.510;2023-12-29T09:34:34;8.70;99.90
39657;DHT22;25337;51.478;7.510;2023-12-29T09:37:00;8.80;99.90
39657;DHT22;25337;51.478;7.510;2023-12-29T09:39:25;8.80;99.90
39657;DHT22;25337;51.478;7.510;2023-12-29T09:42:00;8.80;99.90
39657;DHT22;25337;51.478;7.510;2023-12-29T09:44:27;8.60;99.90
39657;DHT22;25337;51.478;7.510;2023-12-29T09:47:00;8.80;99.90
39657;DHT22;25337;51.478;7.510;2023-12-29T09:49:29;9.00;99.90
39657;DHT22;25337;51.478;7.510;2023-12-29T09:51:57;9.00;99.90
39657;DHT22;25337;51.478;7.510;2023-12-29T09:54:24;9.00;99.90
39657;DHT22;25337;51.478;7.510;2023-12-29T09:56:51;9.20;99.90
39657;DHT22;25337;51.478;7.510;2023-12-29T09:59:16;9.10;99.90
39657;DHT22;25337;51.478;7.510;2023-12-29T10:01:44;9.10;99.90
39657;DHT22;25337;51.478;7.510;2023-12-29T10:04:11;9.20;99.90
39657;DHT22;25337;51.478;7.510;2023-12-29T10:06:40;9.20;99.90
39657;DHT22;25337;51.478;7.510;2023-12-29T10:09:08;9.20;99.90
39657;DHT22;25337;51.478;7.510;2023-12-29T10:11:37;9.10;99.90
39657;DHT22;25337;51.478;7.510;2023-12-29T10:14:15;9.10;99.90
39657;DHT22;25337;51.478;7.510;2023-12-29T10:16:45;9.10;99.90
39657;DHT22;25337;51.478;7.510;2023-12-29T10:19:37;9.00;99.90
39657;DHT22;25337;51.478;7.510;2023-12-29T10:22:15;9.00;99.90
39657;DHT22;25337;51.478;7.510;2023-12-29T10:24:44;8.90;99.90
39657;DHT22;25337;51.478;7.510;2023-12-29T10:27:12;9.00;99.90
39657;DHT22;25337;51.478;7.510;2023-12-29T10:29:38;9.00;99.90
39657;DHT22;25337;51.478;7.510;2023-12-29T10:32:04;8.90;99.90
39657;DHT22;25337;51.478;7.510;2023-12-29T10:34:30;8.90;99.90
39657;DHT22;25337;51.478;7.510;2023-12-29T10:36:58;8.90;99.90
39657;DHT22;25337;51.478;7.510;2023-12-29T10:39:24;9.00;99.90
39657;DHT22;25337;51.478;7.510;2023-12-29T10:41:50;8.90;99.90
39657;DHT22;25337;51.478;7.510;2023-12-29T10:44:27;8.80;99.90
39657;DHT22;25337;51.478;7.510;2023-12-29T10:46:52;8.70;99.90
39657;DHT22;25337;51.478;7.510;2023-12-29T10:49:18;8.70;99.90
39657;DHT22;25337;51.478;7.510;2023-12-29T10:51:44;8.70;99.90
39657;DHT22;25337;51.478;7.510;2023-12-29T10:54:19;8.70;99.90
39657;DHT22;25337;51.478;7.510;2023-12-29T10:57:00;8.70;99.90
39657;DHT22;25337;51.478;7.510;2023-12-29T10:59:27;8.80;99.90
39657;DHT22;25337;51.478;7.510;2023-12-29T11:01:52;8.80;99.90
39657;DHT22;25337;51.478;7.510;2023-12-29T11:04:22;8.90;99.90
39657;DHT22;25337;51.478;7.510;2023-12-29T11:06:48;8.90;99.90
39657;DHT22;25337;51.478;7.510;2023-12-29T11:09:29;9.00;99.90
39657;DHT22;25337;51.478;7.510;2023-12-29T11:12:02;9.00;99.90
39657;DHT22;25337;51.478;7.510;2023-12-29T11:14:28;9.20;99.90
39657;DHT22;25337;51.478;7.510;2023-12-29T11:16:55;9.20;99.90
39657;DHT22;25337;51.478;7.510;2023-12-29T11:19:21;9.30;99.90
39657;DHT22;25337;51.478;7.510;2023-12-29T11:21:49;9.40;99.90
39657;DHT22;25337;51.478;7.510;2023-12-29T11:24:18;9.50;99.90
39657;DHT22;25337;51.478;7.510;2023-12-29T11:26:44;9.60;99.90
39657;DHT22;25337;51.478;7.510;2023-12-29T11:29:11;9.70;99.90
39657;DHT22;25337;51.478;7.510;2023-12-29T11:31:41;9.80;99.90
39657;DHT22;25337;51.478;7.510;2023-12-29T11:34:12;9.80;99.90
39657;DHT22;25337;51.478;7.510;2023-12-29T11:36:45;9.70;99.90
39657;DHT22;25337;51.478;7.510;2023-12-29T11:39:42;9.60;99.90
39657;DHT22;25337;51.478;7.510;2023-12-29T11:42:20;9.70;99.90
39657;DHT22;25337;51.478;7.510;2023-12-29T11:44:46;9.70;99.90
39657;DHT22;25337;51.478;7.510;2023-12-29T11:47:36;9.80;99.90
39657;DHT22;25337;51.478;7.510;2023-12-29T11:50:03;9.80;99.90
39657;DHT22;25337;51.478;7.510;2023-12-29T11:52:36;9.80;99.90
39657;DHT22;25337;51.478;7.510;2023-12-29T11:55:08;9.80;99.90
39657;DHT22;25337;51.478;7.510;2023-12-29T11:57:34;9.90;99.90
39657;DHT22;25337;51.478;7.510;2023-12-29T12:00:02;10.00;99.90
39657;DHT22;25337;51.478;7.510;2023-12-29T12:02:30;10.10;99.90
39657;DHT22;25337;51.478;7.510;2023-12-29T12:04:56;10.10;99.90
39657;DHT22;25337;51.478;7.510;2023-12-29T12:09:48;10.20;99.90
39657;DHT22;25337;51.478;7.510;2023-12-29T12:12:39;10.10;99.90
39657;DHT22;25337;51.478;7.510;2023-12-29T12:15:38;10.00;99.90
39657;DHT22;25337;51.478;7.510;2023-12-29T12:18:11;10.00;99.90
39657;DHT22;25337;51.478;7.510;2023-12-29T12:20:36;9.90;99.90
39657;DHT22;25337;51.478;7.510;2023-12-29T12:23:11;9.90;99.90
39657;DHT22;25337;51.478;7.510;2023-12-29T12:25:39;9.80;99.90
39657;DHT22;25337;51.478;7.510;2023-12-29T12:28:09;9.80;99.90
39657;DHT22;25337;51.478;7.510;2023-12-29T12:30:35;9.90;99.90
39657;DHT22;25337;51.478;7.510;2023-12-29T12:33:02;9.90;99.90
39657;DHT22;25337;51.478;7.510;2023-12-29T12:35:28;10.00;99.90
39657;DHT22;25337;51.478;7.510;2023-12-29T12:38:14;10.00;99.90
39657;DHT22;25337;51.478;7.510;2023-12-29T12:40:40;10.10;99.90
39657;DHT22;25337;51.478;7.510;2023-12-29T12:43:06;10.10;99.90
39657;DHT22;25337;51.478;7.510;2023-12-29T12:45:35;10.10;99.90
39657;DHT22;25337;51.478;7.510;2023-12-29T12:48:30;9.90;99.90
39657;DHT22;25337;51.478;7.510;2023-12-29T12:50:57;10.00;99.90
39657;DHT22;25337;51.478;7.510;2023-12-29T12:53:26;9.90;99.90
39657;DHT22;25337;51.478;7.510;2023-12-29T12:55:52;9.80;99.90
39657;DHT22;25337;51.478;7.510;2023-12-29T12:58:19;9.70;99.90
39657;DHT22;25337;51.478;7.510;2023-12-29T13:00:48;9.50;99.90
39657;DHT22;25337;51.478;7.510;2023-12-29T13:03:15;9.40;99.90
39657;DHT22;25337;51.478;7.510;2023-12-29T13:05:41;9.30;99.90
39657;DHT22;25337;51.478;7.510;2023-12-29T13:08:07;9.20;99.90
39657;DHT22;25337;51.478;7.510;2023-12-29T13:10:33;9.20;99.90
39657;DHT22;25337;51.478;7.510;2023-12-29T13:12:59;9.10;99.90
39657;DHT22;25337;51.478;7.510;2023-12-29T13:15:25;9.00;99.90
39657;DHT22;25337;51.478;7.510;2023-12-29T13:17:52;9.00;99.90
39657;DHT22;25337;51.478;7.510;2023-12-29T13:20:17;8.90;99.90
39657;DHT22;25337;51.478;7.510;2023-12-29T13:22:43;8.90;99.90
39657;DHT22;25337;51.478;7.510;2023-12-29T13:25:11;8.90;99.90
39657;DHT22;25337;51.478;7.510;2023-12-29T13:27:39;8.80;99.90
39657;DHT22;25337;51.478;7.510;2023-12-29T13:30:06;8.80;99.90
39657;DHT22;25337;51.478;7.510;2023-12-29T13:32:32;8.80;99.90
39657;DHT22;25337;51.478;7.510;2023-12-29T13:35:19;8.90;99.90
39657;DHT22;25337;51.478;7.510;2023-12-29T13:37:47;8.90;99.90
39657;DHT22;25337;51.478;7.510;2023-12-29T13:42:45;8.80;99.90
39657;DHT22;25337;51.478;7.510;2023-12-29T13:45:12;9.00;99.90
39657;DHT22;25337;51.478;7.510;2023-12-29T13:47:40;9.00;99.90
39657;DHT22;25337;51.478;7.510;2023-12-29T13:50:09;8.90;99.90
39657;DHT22;25337;51.478;7.510;2023-12-29T13:52:39;9.00;99.90
39657;DHT22;25337;51.478;7.510;2023-12-29T13:55:05;9.00;99.90
39657;DHT22;25337;51.478;7.510;2023-12-29T13:57:35;9.00;99.90
39657;DHT22;25337;51.478;7.510;2023-12-29T14:00:18;9.00;99.90
39657;DHT22;25337;51.478;7.510;2023-12-29T14:05:32;9.00;99.90
39657;DHT22;25337;51.478;7.510;2023-12-29T14:08:08;9.00;99.90
39657;DHT22;25337;51.478;7.510;2023-12-29T14:10:36;9.00;99.90
39657;DHT22;25337;51.478;7.510;2023-12-29T14:13:11;9.00;99.90
39657;DHT22;25337;51.478;7.510;2023-12-29T14:15:38;9.10;99.90
39657;DHT22;25337;51.478;7.510;2023-12-29T14:20:37;9.10;99.90
39657;DHT22;25337;51.478;7.510;2023-12-29T14:23:03;9.10;99.90
39657;DHT22;25337;51.478;7.510;2023-12-29T14:25:31;9.20;99.90
39657;DHT22;25337;51.478;7.510;2023-12-29T14:28:01;9.20;99.90
39657;DHT22;25337;51.478;7.510;2023-12-29T14:30:27;9.20;99.90
39657;DHT22;25337;51.478;7.510;2023-12-29T14:32:54;9.30;99.90
39657;DHT22;25337;51.478;7.510;2023-12-29T14:35:19;9.30;99.90
39657;DHT22;25337;51.478;7.510;2023-12-29T14:37:45;9.30;99.90
39657;DHT22;25337;51.478;7.510;2023-12-29T14:40:11;9.30;99.90
39657;DHT22;25337;51.478;7.510;2023-12-29T14:42:37;9.30;99.90
39657;DHT22;25337;51.478;7.510;2023-12-29T14:45:03;9.30;99.90
39657;DHT22;25337;51.478;7.510;2023-12-29T14:47:29;9.30;99.90
39657;DHT22;25337;51.478;7.510;2023-12-29T14:49:54;9.30;99.90
39657;DHT22;25337;51.478;7.510;2023-12-29T14:52:20;9.40;99.90
39657;DHT22;25337;51.478;7.510;2023-12-29T14:54:46;9.30;99.90
39657;DHT22;25337;51.478;7.510;2023-12-29T14:57:11;9.40;99.90
39657;DHT22;25337;51.478;7.510;2023-12-29T14:59:37;9.40;99.90
39657;DHT22;25337;51.478;7.510;2023-12-29T15:02:03;9.40;99.90
39657;DHT22;25337;51.478;7.510;2023-12-29T15:04:32;9.40;99.90
39657;DHT22;25337;51.478;7.510;2023-12-29T15:06:58;9.40;99.90
39657;DHT22;25337;51.478;7.510;2023-12-29T15:09:23;9.40;99.90
39657;DHT22;25337;51.478;7.510;2023-12-29T15:11:49;9.40;99.90
39657;DHT22;25337;51.478;7.510;2023-12-29T15:14:18;9.40;99.90
39657;DHT22;25337;51.478;7.510;2023-12-29T15:16:45;9.40;99.90
39657;DHT22;25337;51.478;7.510;2023-12-29T15:19:10;9.30;99.90
39657;DHT22;25337;51.478;7.510;2023-12-29T15:21:38;9.30;99.90
39657;DHT22;25337;51.478;7.510;2023-12-29T15:24:04;9.20;99.90
39657;DHT22;25337;51.478;7.510;2023-12-29T15:26:30;9.20;99.90
39657;DHT22;25337;51.478;7.510;2023-12-29T15:28:56;9.10;99.90
39657;DHT22;25337;51.478;7.510;2023-12-29T15:31:23;9.00;99.90
39657;DHT22;25337;51.478;7.510;2023-12-29T15:33:49;9.10;99.90
39657;DHT22;25337;51.478;7.510;2023-12-29T15:36:15;9.00;99.90
39657;DHT22;25337;51.478;7.510;2023-12-29T15:38:47;9.00;99.90
39657;DHT22;25337;51.478;7.510;2023-12-29T15:41:13;8.80;99.90
39657;DHT22;25337;51.478;7.510;2023-12-29T15:43:38;8.80;99.90
39657;DHT22;25337;51.478;7.510;2023-12-29T15:46:12;8.80;99.90
39657;DHT22;25337;51.478;7.510;2023-12-29T15:48:38;8.70;99.90
39657;DHT22;25337;51.478;7.510;2023-12-29T15:51:06;8.70;99.90
39657;DHT22;25337;51.478;7.510;2023-12-29T15:53:32;8.70;99.90
39657;DHT22;25337;51.478;7.510;2023-12-29T15:55:58;8.70;99.90
39657;DHT22;25337;51.478;7.510;2023-12-29T15:58:24;8.70;99.90
39657;DHT22;25337;51.478;7.510;2023-12-29T16:00:50;8.60;99.90